West Saint Paul, Minnesota
Current Conditions -  °F | °C
As of 6:01 AM on Sunday 23 Nov 2014 (Local Time) from KSTP Reporting Station
Haze Haze  
Wind Chill: 43°   Ceiling: 1300
Heat Index: 46°   Visibility: 4mi
Dew Point: 45°   Wind: 6mph
Humidity: 96%   Direction: 120°ESE
Pressure: 29.44"   Gusts: NA
Location:  44.8976°N, 93.103°W
Report Text: KSTP 231201Z AUTO 12005KT 4SM BR BKN013 BKN020 08/07 A2944 RMK AO2 T00780072
Loading
Personal Weather Stations






























Interactive Weather Map New forecast layout! Learn more

10-Day Weather Forecast

Advertisements
Track Severe Weather on mobile